createdAt,value
2022-12-28T00:12:24.593Z,2690.76357
2022-12-28T00:27:26.643Z,2701.61342
2022-12-28T00:42:28.632Z,2540.28488
2022-12-28T00:57:30.558Z,2423.14699
2022-12-28T01:12:37.940Z,2300.42969
2022-12-28T01:27:40.304Z,2290.5988
2022-12-28T01:42:42.264Z,2306.36884
2022-12-28T01:57:44.164Z,2344.70742
2022-12-28T02:12:46.146Z,2380.10708
2022-12-28T02:27:48.156Z,2434.15128
2022-12-28T02:42:50.266Z,2650.84127
2022-12-28T02:57:52.209Z,2557.25242
2022-12-28T03:12:54.127Z,2338.56944
2022-12-28T03:27:56.356Z,2306.36884
2022-12-28T03:42:58.258Z,2399.28431
2022-12-28T03:58:00.302Z,2420.95805
2022-12-28T04:13:02.267Z,2334.49528
2022-12-28T04:28:04.226Z,1826.85803
2022-12-28T04:43:06.192Z,1793.84253
2022-12-28T04:58:08.090Z,2154.34134
2022-12-28T05:13:09.991Z,2290.5988
2022-12-28T05:28:12.211Z,2338.56944
2022-12-28T05:43:14.115Z,2410.07245
2022-12-28T05:58:16.060Z,2509.36381
2022-12-28T06:13:17.990Z,2549.95294
2022-12-28T06:28:19.987Z,2535.47828
2022-12-28T06:43:21.985Z,2596.89974
2022-12-28T06:58:23.919Z,2619.74636
2022-12-28T07:13:28.355Z,2669.32323
2022-12-28T07:28:30.471Z,2696.17758
2022-12-28T07:43:32.405Z,2745.90216
2022-12-28T07:58:34.367Z,2791.66719
2022-12-28T08:13:36.261Z,2780.08351
2022-12-28T08:28:38.431Z,2797.49531
2022-12-28T08:43:40.406Z,2854.10063
2022-12-28T08:58:42.471Z,2903.57583
2022-12-28T09:13:44.412Z,2878.62566
2022-12-28T09:28:46.382Z,2922.57414
2022-12-28T09:43:48.309Z,2919.39051
2022-12-28T09:58:50.224Z,2935.37841
2022-12-28T10:13:54.985Z,2891.04692
2022-12-28T10:28:57.433Z,2757.20217
2022-12-28T10:44:37.482Z,2740.28682
2022-12-28T10:59:40.792Z,2601.94227
2022-12-28T11:14:42.753Z,2601.94227
2022-12-28T11:29:44.744Z,2612.08629
2022-12-28T11:44:46.713Z,2666.66719
2022-12-28T11:59:48.713Z,2688.06471
2022-12-28T12:14:50.644Z,2737.48775
2022-12-28T12:29:52.589Z,2757.20217
2022-12-28T12:44:54.522Z,2765.7384
2022-12-28T12:59:56.731Z,2812.17261
2022-12-28T13:14:58.732Z,2894.169
2022-12-28T13:30:00.673Z,2913.04401
2022-12-28T13:45:02.678Z,2932.16683
2022-12-28T14:00:04.576Z,2932.16683
2022-12-28T14:15:06.499Z,2987.73738
2022-12-28T14:30:08.499Z,2996.08768
2022-12-28T14:45:10.578Z,2984.41033
2022-12-28T15:00:13.688Z,2997.76335
2022-12-28T15:15:15.904Z,3023.12513
2022-12-28T15:30:20.619Z,3001.1203
2022-12-28T15:45:26.337Z,2961.3265
2022-12-28T16:00:28.350Z,2984.41033
2022-12-28T16:15:30.294Z,2981.09063
2022-12-28T16:30:32.249Z,2954.79656
2022-12-28T16:45:34.343Z,2984.41033
2022-12-28T17:00:36.387Z,2945.05548
2022-12-28T17:15:38.351Z,2869.37954
2022-12-28T17:30:40.457Z,2740.28682
2022-12-28T17:45:42.398Z,2493.02377
2022-12-28T18:00:44.418Z,2516.43244
2022-12-28T18:15:46.349Z,2635.20209
2022-12-28T18:30:48.509Z,2709.80841
2022-12-28T18:45:50.513Z,2815.12658
2022-12-28T19:00:52.491Z,2818.08675
2022-12-28T19:15:54.444Z,2848.03453
2022-12-28T19:31:02.676Z,2894.169
2022-12-28T19:46:06.681Z,2881.72096
2022-12-28T20:01:08.789Z,2900.43343
2022-12-28T20:16:10.779Z,2866.31069
2022-12-28T20:31:12.916Z,2821.05316
2022-12-28T20:46:15.118Z,2818.08675
2022-12-28T21:01:17.380Z,2829.98997
2022-12-28T21:16:19.505Z,2835.97936
2022-12-28T21:31:21.603Z,2824.02582
2022-12-28T21:46:23.599Z,2788.76223
2022-12-28T22:01:25.728Z,2780.08351
2022-12-28T22:16:27.897Z,2785.86331
2022-12-28T22:31:29.939Z,2740.28682
2022-12-28T22:46:32.060Z,2704.33957
2022-12-28T23:01:34.184Z,2653.46587
2022-12-28T23:16:36.257Z,2645.60763
2022-12-28T23:31:38.314Z,2640.39461
2022-12-28T23:46:40.239Z,2642.99855
